Date,TemperatureHighF,TemperatureAvgF,TemperatureLowF,DewpointHighF,DewpointAvgF,DewpointLowF,HumidityHigh,HumidityAvg,HumidityLow,PressureMaxIn,PressureMinIn,WindSpeedMaxMPH,WindSpeedAvgMPH,GustSpeedMaxMPH,PrecipitationSumIn
2013-4-1,44,37,29,-100,-100,-100,0,0,100,0.00,40.00,0,-999,0,0.00
2013-4-2,44,34,28,-100,-100,-100,0,0,100,0.00,40.00,0,-999,0,0.00
2013-4-3,43,33,26,-100,-100,-100,0,0,100,0.00,40.00,0,-999,0,0.01
2013-4-4,48,38,28,-100,-100,-100,0,0,100,0.00,40.00,0,-999,0,0.00
2013-4-5,46,39,32,-100,-100,-100,0,0,100,0.00,40.00,0,-999,0,0.01
2013-4-6,44,35,28,-100,-100,-100,0,0,100,0.00,40.00,0,-999,0,0.01
2013-4-7,41,34,27,-100,-100,-100,0,0,100,0.00,40.00,0,-999,0,0.01
2013-4-8,46,35,30,-100,-100,-100,0,0,100,0.00,40.00,0,-999,0,0.00
2013-4-9,32,26,17,-100,-100,-100,0,0,100,0.00,40.00,0,-999,0,0.04
2013-4-10,31,18,9,-100,-100,-100,0,0,100,0.00,40.00,0,-999,0,0.01
2013-4-11,41,29,17,-100,-100,-100,0,0,100,0.00,40.00,0,-999,0,0.00
2013-4-12,39,31,25,-100,-100,-100,0,0,100,0.00,40.00,0,-999,0,0.00
2013-4-13,44,33,25,-100,-100,-100,0,0,100,0.00,40.00,0,-999,0,0.00
2013-4-14,34,30,21,-100,-100,-100,0,0,100,0.00,40.00,0,-999,0,0.03
2013-4-15,40,33,30,-100,-100,-100,0,0,100,0.00,40.00,0,-999,0,0.02
2013-4-16,45,36,29,-100,-100,-100,0,0,100,0.00,40.00,0,-999,0,0.01
2013-4-17,32,25,12,-100,-100,-100,0,0,100,0.00,40.00,0,-999,0,0.01
2013-4-18,24,14,6,-100,-100,-100,0,0,100,0.00,40.00,0,-999,0,0.01
2013-4-19,36,24,13,-100,-100,-100,0,0,100,0.00,40.00,0,-999,0,0.00
2013-4-20,41,30,24,-100,-100,-100,0,0,100,0.00,40.00,0,-999,0,0.01
2013-4-21,42,34,24,-100,-100,-100,0,0,100,0.00,40.00,0,-999,0,0.01
2013-4-22,44,36,30,-100,-100,-100,0,0,100,0.00,40.00,0,-999,0,0.01
2013-4-23,31,27,22,-100,-100,-100,0,0,100,0.00,40.00,0,-999,0,0.01
2013-4-24,38,34,27,-100,-100,-100,0,0,100,0.00,40.00,0,-999,0,0.00
2013-4-25,46,35,26,-100,-100,-100,0,0,100,0.00,40.00,0,-999,0,0.00
2013-4-26,50,40,31,-100,-100,-100,0,0,100,0.00,40.00,0,-999,0,0.00
2013-4-27,50,40,31,-100,-100,-100,0,0,100,0.00,40.00,0,-999,0,0.00
2013-4-28,54,44,36,-100,-100,-100,0,0,100,0.00,40.00,0,-999,0,0.00
2013-4-29,53,47,39,-100,-100,-100,0,0,100,0.00,40.00,0,-999,0,0.00
2013-4-30,54,49,44,-100,-100,-100,0,0,100,0.00,40.00,0,-999,0,0.00